createdAt,value
2022-10-03T00:02:02.031Z,5.38
2022-10-03T00:04:46.989Z,4.80
2022-10-03T00:07:21.579Z,4.72
2022-10-03T00:09:54.516Z,4.50
2022-10-03T00:12:37.671Z,4.70
2022-10-03T00:15:28.428Z,3.97
2022-10-03T00:18:05.696Z,3.88
2022-10-03T00:20:45.141Z,3.58
2022-10-03T00:23:15.607Z,4.20
2022-10-03T00:25:54.182Z,4.60
2022-10-03T00:28:26.637Z,3.42
2022-10-03T00:31:09.317Z,3.92
2022-10-03T00:33:51.137Z,4.60
2022-10-03T00:36:17.401Z,2.45
2022-10-03T00:38:58.629Z,2.67
2022-10-03T00:41:44.024Z,3.38
2022-10-03T00:44:29.251Z,3.22
2022-10-03T00:47:03.662Z,3.95
2022-10-03T00:49:29.959Z,3.20
2022-10-03T00:51:56.384Z,3.17
2022-10-03T00:54:28.514Z,3.13
2022-10-03T00:57:14.262Z,3.00
2022-10-03T00:59:52.801Z,2.67
2022-10-03T01:02:41.771Z,2.92
2022-10-03T01:05:26.499Z,2.28
2022-10-03T01:07:52.762Z,3.00
2022-10-03T01:10:19.802Z,2.55
2022-10-03T01:12:54.944Z,3.08
2022-10-03T01:15:21.270Z,2.03
2022-10-03T01:17:54.491Z,3.25
2022-10-03T01:20:38.269Z,2.33
2022-10-03T01:23:21.147Z,2.35
2022-10-03T01:25:52.165Z,2.30
2022-10-03T01:28:55.771Z,2.20
2022-10-03T01:31:40.919Z,2.92
2022-10-03T01:34:10.760Z,2.53
2022-10-03T01:36:47.045Z,3.47
2022-10-03T01:39:13.295Z,2.78
2022-10-03T01:41:59.139Z,2.85
2022-10-03T01:44:37.959Z,3.35
2022-10-03T01:47:15.327Z,2.63
2022-10-03T01:49:48.574Z,2.58
2022-10-03T01:52:25.077Z,2.70
2022-10-03T01:55:10.318Z,2.47
2022-10-03T01:57:55.640Z,2.20
2022-10-03T02:00:25.807Z,2.58
2022-10-03T02:03:10.371Z,2.55
2022-10-03T02:05:55.200Z,3.10
2022-10-03T02:08:40.377Z,3.83
2022-10-03T02:11:08.347Z,3.17
2022-10-03T02:13:44.465Z,4.03
2022-10-03T02:16:17.618Z,3.83
2022-10-03T02:18:59.262Z,4.75
2022-10-03T02:21:29.519Z,3.47
2022-10-03T02:26:40.722Z,5.07
2022-10-03T02:29:06.972Z,3.97
2022-10-03T02:31:33.354Z,4.25
2022-10-03T02:34:17.125Z,3.30
2022-10-03T02:36:43.487Z,3.90
2022-10-03T02:39:24.584Z,2.35
2022-10-03T02:41:52.259Z,4.22
2022-10-03T02:44:37.814Z,3.85
2022-10-03T02:47:19.211Z,4.53
2022-10-03T02:49:58.102Z,3.47
2022-10-03T02:52:45.401Z,4.43
2022-10-03T02:55:23.869Z,3.92
2022-10-03T02:57:53.079Z,3.17
2022-10-03T03:00:20.992Z,3.55
2022-10-03T03:02:54.685Z,4.13
2022-10-03T03:05:39.513Z,5.32
2022-10-03T03:08:14.985Z,3.70
2022-10-03T03:11:00.667Z,3.80
2022-10-03T03:13:39.122Z,5.30
2022-10-03T03:16:33.100Z,5.30
2022-10-03T03:18:59.553Z,4.80
2022-10-03T03:21:33.875Z,4.32
2022-10-03T03:24:00.113Z,4.65
2022-10-03T03:26:28.098Z,5.03
2022-10-03T03:29:12.860Z,4.43
2022-10-03T03:31:51.357Z,9.75
2022-10-03T03:34:20.069Z,5.13
2022-10-03T03:37:00.951Z,6.35
2022-10-03T03:39:33.273Z,6.15
2022-10-03T03:42:18.290Z,5.18
2022-10-03T03:45:03.415Z,4.53
2022-10-03T03:47:36.383Z,5.03
2022-10-03T03:50:21.400Z,4.93
2022-10-03T03:52:59.337Z,7.28
2022-10-03T03:55:26.340Z,5.95
2022-10-03T03:57:59.910Z,5.25
2022-10-03T04:00:38.566Z,5.75
2022-10-03T04:03:14.091Z,4.35
2022-10-03T04:05:56.432Z,6.72
2022-10-03T04:08:42.021Z,6.93
2022-10-03T04:11:12.302Z,6.07
2022-10-03T04:16:38.774Z,5.80
2022-10-03T04:21:47.664Z,9.68
2022-10-03T04:24:24.093Z,6.47
2022-10-03T04:26:59.974Z,7.85
2022-10-03T04:29:29.322Z,6.18
2022-10-03T04:32:15.691Z,5.55
2022-10-03T04:34:44.811Z,5.93
2022-10-03T04:37:20.315Z,7.70
2022-10-03T04:39:55.799Z,6.53
2022-10-03T04:42:28.271Z,6.28
2022-10-03T04:45:09.865Z,5.57
2022-10-03T04:47:39.210Z,6.25
2022-10-03T04:50:11.652Z,6.63
2022-10-03T04:52:56.791Z,7.85
2022-10-03T04:55:23.218Z,4.75
2022-10-03T04:58:05.500Z,6.72
2022-10-03T05:00:54.954Z,5.45
2022-10-03T05:03:42.935Z,5.60
2022-10-03T05:06:27.705Z,6.22
2022-10-03T05:09:17.155Z,5.95
2022-10-03T05:12:03.690Z,6.90
2022-10-03T05:14:33.046Z,5.50
2022-10-03T05:17:09.543Z,6.57
2022-10-03T05:19:54.928Z,6.13
2022-10-03T05:22:27.694Z,7.00
2022-10-03T05:25:12.583Z,9.02
2022-10-03T05:27:45.355Z,6.10
2022-10-03T05:30:24.408Z,5.63
2022-10-03T05:33:09.429Z,5.57
2022-10-03T05:35:45.798Z,8.35
2022-10-03T05:38:21.396Z,7.07
2022-10-03T05:41:04.865Z,7.47
2022-10-03T05:43:50.902Z,6.00
2022-10-03T05:46:35.908Z,6.43
2022-10-03T05:49:03.949Z,6.32
2022-10-03T05:51:43.797Z,6.35
2022-10-03T05:54:22.611Z,5.45
2022-10-03T05:56:54.911Z,5.32
2022-10-03T05:59:31.110Z,5.28
2022-10-03T06:02:17.807Z,6.75
2022-10-03T06:05:02.564Z,5.22
2022-10-03T06:07:30.506Z,7.05
2022-10-03T06:10:16.118Z,6.60
2022-10-03T06:12:42.699Z,7.05
2022-10-03T06:15:27.731Z,5.60
2022-10-03T06:18:12.345Z,5.72
2022-10-03T06:20:56.955Z,6.22
2022-10-03T06:23:32.356Z,5.88
2022-10-03T06:26:12.953Z,4.93
2022-10-03T06:28:45.171Z,4.22
2022-10-03T06:31:38.022Z,6.30
2022-10-03T06:34:22.883Z,6.55
2022-10-03T06:37:02.826Z,4.72
2022-10-03T06:39:47.895Z,5.55
2022-10-03T06:42:20.618Z,5.75
2022-10-03T06:44:47.038Z,6.00
2022-10-03T06:47:24.836Z,3.90
2022-10-03T06:50:13.091Z,4.75
2022-10-03T06:53:04.450Z,4.38
2022-10-03T06:55:50.091Z,3.75
2022-10-03T06:58:31.746Z,7.60
2022-10-03T07:01:04.899Z,4.35
2022-10-03T07:03:31.299Z,3.80
2022-10-03T07:05:58.126Z,5.10
2022-10-03T07:08:24.410Z,4.43
2022-10-03T07:11:09.185Z,4.13
2022-10-03T07:13:56.684Z,4.35
2022-10-03T07:16:41.365Z,3.70
2022-10-03T07:19:22.888Z,4.25
2022-10-03T07:22:08.526Z,3.60
2022-10-03T07:24:34.876Z,3.92
2022-10-03T07:27:04.021Z,3.00
2022-10-03T07:29:30.265Z,3.72
2022-10-03T07:31:57.510Z,3.75
2022-10-03T07:34:42.790Z,2.63
2022-10-03T07:37:31.128Z,3.05
2022-10-03T07:40:06.080Z,2.92
2022-10-03T07:42:51.230Z,2.72
2022-10-03T07:45:30.283Z,3.05
2022-10-03T07:48:04.648Z,3.15
2022-10-03T07:50:37.325Z,3.33
2022-10-03T07:53:31.110Z,2.63
2022-10-03T07:56:17.736Z,2.40
2022-10-03T07:58:44.017Z,2.40
2022-10-03T08:01:29.001Z,2.85
2022-10-03T08:03:58.311Z,2.65
2022-10-03T08:06:26.357Z,3.60
2022-10-03T08:09:03.131Z,1.77
2022-10-03T08:11:32.423Z,3.35
2022-10-03T08:14:18.659Z,3.53
2022-10-03T08:17:09.146Z,2.83
2022-10-03T08:19:44.343Z,3.45
2022-10-03T08:22:16.850Z,3.90
2022-10-03T08:25:03.225Z,2.60
2022-10-03T08:27:35.739Z,3.15
2022-10-03T08:30:09.152Z,2.88
2022-10-03T08:32:38.197Z,2.60
2022-10-03T08:35:18.227Z,3.10
2022-10-03T08:37:53.638Z,2.85
2022-10-03T08:40:19.920Z,2.15
2022-10-03T08:42:46.203Z,2.40
2022-10-03T08:45:32.428Z,3.72
2022-10-03T08:48:17.756Z,2.17
2022-10-03T08:50:44.194Z,2.03
2022-10-03T08:53:16.359Z,2.40
2022-10-03T08:55:45.638Z,2.78
2022-10-03T08:58:26.085Z,2.03
2022-10-03T09:01:27.663Z,3.08
2022-10-03T09:03:56.967Z,2.22
2022-10-03T09:06:35.366Z,2.28
2022-10-03T09:09:01.597Z,2.17
2022-10-03T09:11:33.917Z,1.60
2022-10-03T09:14:19.011Z,2.50
2022-10-03T09:16:48.293Z,1.73
2022-10-03T09:19:41.053Z,3.03
2022-10-03T09:22:07.319Z,1.65
2022-10-03T09:24:55.229Z,1.88
2022-10-03T09:27:25.126Z,3.00
2022-10-03T09:29:57.237Z,1.75
2022-10-03T09:32:42.013Z,1.75
2022-10-03T09:35:11.071Z,2.13
2022-10-03T09:37:42.772Z,1.25
2022-10-03T09:40:26.662Z,1.73
2022-10-03T09:42:54.004Z,1.90
2022-10-03T09:45:39.091Z,1.65
2022-10-03T09:48:24.231Z,1.67
2022-10-03T09:50:54.017Z,2.58
2022-10-03T09:53:27.364Z,1.33
2022-10-03T09:55:58.932Z,1.48
2022-10-03T09:58:43.415Z,1.63
2022-10-03T10:01:30.519Z,1.60
2022-10-03T10:04:11.911Z,1.20
2022-10-03T10:06:50.649Z,1.05
2022-10-03T10:09:35.784Z,1.95
2022-10-03T10:12:17.476Z,1.80
2022-10-03T10:14:49.973Z,2.22
2022-10-03T10:17:36.502Z,1.30
2022-10-03T10:20:11.914Z,1.25
2022-10-03T10:22:41.215Z,1.60
2022-10-03T10:25:26.741Z,1.23
2022-10-03T10:28:11.635Z,2.72
2022-10-03T10:30:47.138Z,1.08
2022-10-03T10:33:32.307Z,2.03
2022-10-03T10:36:17.086Z,1.15
2022-10-03T10:39:02.344Z,1.10
2022-10-03T10:41:31.646Z,0.90
2022-10-03T10:44:16.773Z,1.75
2022-10-03T10:47:02.143Z,0.82
2022-10-03T10:49:35.673Z,1.40
2022-10-03T10:52:14.299Z,1.20
2022-10-03T10:54:55.554Z,0.93
2022-10-03T10:57:29.256Z,1.40
2022-10-03T11:00:15.272Z,0.85
2022-10-03T11:03:03.062Z,0.65
2022-10-03T11:05:35.639Z,0.28
2022-10-03T11:08:16.902Z,0.20
2022-10-03T11:10:58.461Z,1.95
2022-10-03T11:13:43.463Z,0.60
2022-10-03T11:16:12.685Z,2.63
2022-10-03T11:18:44.883Z,0.43
2022-10-03T11:21:33.192Z,0.88
2022-10-03T11:24:02.315Z,0.43
2022-10-03T11:26:47.419Z,1.30
2022-10-03T11:29:32.373Z,0.50
2022-10-03T11:32:17.555Z,0.77
2022-10-03T11:35:03.035Z,1.30
2022-10-03T11:37:33.854Z,0.38
2022-10-03T11:40:09.938Z,0.93
2022-10-03T11:42:39.747Z,0.45
2022-10-03T11:45:12.047Z,0.77
2022-10-03T11:47:42.350Z,0.47
2022-10-03T11:50:11.751Z,0.85
2022-10-03T11:52:40.875Z,0.73
2022-10-03T11:55:24.932Z,0.83
2022-10-03T11:58:00.526Z,1.08
2022-10-03T12:00:29.087Z,0.43
2022-10-03T12:03:01.130Z,0.20
2022-10-03T12:05:36.363Z,0.10
2022-10-03T12:08:40.297Z,0.52
2022-10-03T12:11:24.027Z,0.60
2022-10-03T12:13:53.294Z,0.85
2022-10-03T12:16:27.551Z,0.30
2022-10-03T12:18:58.440Z,0.57
2022-10-03T12:21:39.461Z,1.02
2022-10-03T12:24:11.711Z,0.30
2022-10-03T12:26:38.425Z,0.30
2022-10-03T12:29:09.081Z,0.35
2022-10-03T12:31:58.407Z,0.20
2022-10-03T12:34:49.390Z,0.25
2022-10-03T12:37:34.374Z,0.52
2022-10-03T12:40:15.973Z,0.70
2022-10-03T12:42:48.838Z,0.30
2022-10-03T12:45:29.927Z,0.55
2022-10-03T12:48:01.469Z,0.40
2022-10-03T12:50:46.654Z,0.50
2022-10-03T12:53:16.054Z,1.10
2022-10-03T12:55:57.771Z,0.30
2022-10-03T12:58:42.340Z,2.55
2022-10-03T13:01:20.823Z,0.40
2022-10-03T13:03:56.069Z,0.38
2022-10-03T13:06:50.982Z,0.60
2022-10-03T13:09:16.176Z,0.30
2022-10-03T13:12:04.194Z,0.28
2022-10-03T13:15:05.986Z,0.15
2022-10-03T13:17:49.510Z,0.20
2022-10-03T13:20:24.797Z,0.45
2022-10-03T13:23:09.476Z,0.43
2022-10-03T13:25:38.675Z,0.20
2022-10-03T13:28:15.592Z,0.45
2022-10-03T13:30:53.953Z,0.30
2022-10-03T13:33:24.838Z,0.20
2022-10-03T13:36:02.721Z,0.22
2022-10-03T13:38:29.096Z,1.55
2022-10-03T13:41:14.034Z,0.38
2022-10-03T13:43:42.074Z,0.17
2022-10-03T13:46:22.071Z,0.22
2022-10-03T13:48:55.135Z,0.43
2022-10-03T13:51:22.846Z,0.22
2022-10-03T13:54:00.201Z,0.43
2022-10-03T13:56:39.108Z,1.33
2022-10-03T13:59:11.466Z,0.40
2022-10-03T14:01:56.811Z,0.20
2022-10-03T14:04:26.148Z,0.28
2022-10-03T14:06:52.495Z,0.20
2022-10-03T14:09:28.256Z,0.20
2022-10-03T14:12:01.429Z,0.30
2022-10-03T14:14:34.456Z,0.70
2022-10-03T14:17:20.049Z,0.20
2022-10-03T14:19:47.042Z,0.40
2022-10-03T14:22:19.354Z,0.50
2022-10-03T14:24:46.019Z,0.32
2022-10-03T14:27:35.320Z,0.82
